createdAt,value
2018-11-27T00:00:24.312Z,75.89
2018-11-27T00:01:24.338Z,75.42
2018-11-27T00:02:24.345Z,75.32
2018-11-27T00:03:24.106Z,75.32
2018-11-27T00:04:24.124Z,75.42
2018-11-27T00:05:24.416Z,75.32
2018-11-27T00:06:24.161Z,75.51
2018-11-27T00:07:24.443Z,75.51
2018-11-27T00:08:24.447Z,75.42
2018-11-27T00:09:24.214Z,75.89
2018-11-27T00:10:24.231Z,75.23
2018-11-27T00:11:24.250Z,75.89
2018-11-27T00:12:24.269Z,75.89
2018-11-27T00:13:24.287Z,75.89
2018-11-27T00:14:24.558Z,76.08
2018-11-27T00:15:24.314Z,75.99
2018-11-27T00:16:24.330Z,75.89
2018-11-27T00:17:24.359Z,75.32
2018-11-27T00:18:24.368Z,75.32
2018-11-27T00:19:24.646Z,75.23
2018-11-27T00:20:24.659Z,75.42
2018-11-27T00:21:24.679Z,75.32
2018-11-27T00:22:24.701Z,75.32
2018-11-27T00:23:24.469Z,75.32
2018-11-27T00:24:24.737Z,75.32
2018-11-27T00:25:24.493Z,75.32
2018-11-27T00:26:24.508Z,75.42
2018-11-27T00:27:24.526Z,75.32
2018-11-27T00:28:24.802Z,75.32
2018-11-27T00:29:24.834Z,75.32
2018-11-27T00:30:24.837Z,75.51
2018-11-27T00:31:24.605Z,75.23
2018-11-27T00:32:24.876Z,75.32
2018-11-27T00:33:24.893Z,75.32
2018-11-27T00:34:24.961Z,75.32
2018-11-27T00:35:24.933Z,75.42
2018-11-27T00:36:24.949Z,75.32
2018-11-27T00:37:24.707Z,75.32
2018-11-27T00:38:24.982Z,75.42
2018-11-27T00:39:24.737Z,75.32
2018-11-27T00:40:24.763Z,75.32
2018-11-27T00:41:25.037Z,75.32
2018-11-27T00:42:25.055Z,75.42
2018-11-27T00:43:25.078Z,75.32
2018-11-27T00:44:25.089Z,75.51
2018-11-27T00:45:24.854Z,75.51
2018-11-27T00:46:24.870Z,75.23
2018-11-27T00:47:25.141Z,75.23
2018-11-27T00:48:24.899Z,75.32
2018-11-27T00:49:25.178Z,75.51
2018-11-27T00:50:24.939Z,75.42
2018-11-27T00:51:24.949Z,75.51
2018-11-27T00:52:25.227Z,75.51
2018-11-27T00:53:25.293Z,75.42
2018-11-27T00:54:25.006Z,75.6
2018-11-27T00:55:25.289Z,75.6
2018-11-27T00:56:25.309Z,75.51
2018-11-27T00:57:25.330Z,75.32
2018-11-27T00:58:25.077Z,75.32
2018-11-27T00:59:25.094Z,75.51
2018-11-27T01:00:25.370Z,75.51
2018-11-27T01:01:25.130Z,75.51
2018-11-27T01:02:25.151Z,75.51
2018-11-27T01:03:25.173Z,75.51
2018-11-27T01:04:25.180Z,75.51
2018-11-27T01:05:25.200Z,75.51
2018-11-27T01:06:25.478Z,75.51
2018-11-27T01:07:25.237Z,75.51
2018-11-27T01:08:25.526Z,75.51
2018-11-27T01:09:25.530Z,75.51
2018-11-27T01:10:25.545Z,75.51
2018-11-27T01:11:25.313Z,75.51
2018-11-27T01:12:25.324Z,75.6
2018-11-27T01:13:25.601Z,75.32
2018-11-27T01:14:25.359Z,75.51
2018-11-27T01:15:25.651Z,75.32
2018-11-27T01:16:25.397Z,75.32
2018-11-27T01:17:25.411Z,75.51
2018-11-27T01:18:25.428Z,75.51
2018-11-27T01:19:25.450Z,75.51
2018-11-27T01:20:25.734Z,75.23
2018-11-27T01:21:25.492Z,75.42
2018-11-27T01:22:25.774Z,75.42
2018-11-27T01:23:25.778Z,75.6
2018-11-27T01:24:25.537Z,75.51
2018-11-27T01:25:25.561Z,75.51
2018-11-27T01:26:25.583Z,75.51
2018-11-27T01:27:25.586Z,75.32
2018-11-27T01:28:25.877Z,75.42
2018-11-27T01:29:25.626Z,75.32
2018-11-27T01:30:25.900Z,75.79
2018-11-27T01:31:25.665Z,75.51
2018-11-27T01:32:25.935Z,75.32
2018-11-27T01:33:25.704Z,75.51
2018-11-27T01:34:25.711Z,75.32
2018-11-27T01:35:25.988Z,75.32
2018-11-27T01:36:25.747Z,75.32
2018-11-27T01:37:25.765Z,75.51
2018-11-27T01:38:25.789Z,75.32
2018-11-27T01:39:26.058Z,75.7
2018-11-27T01:40:25.819Z,75.51
2018-11-27T01:41:25.837Z,75.51
2018-11-27T01:42:26.111Z,75.51
2018-11-27T01:43:25.868Z,75.7
2018-11-27T01:44:26.155Z,75.7
2018-11-27T01:45:25.915Z,75.42
2018-11-27T01:46:26.179Z,75.51
2018-11-27T01:47:25.949Z,75.42
2018-11-27T01:48:26.235Z,75.42
2018-11-27T01:49:25.989Z,75.51
2018-11-27T01:50:25.994Z,75.7
2018-11-27T01:51:26.275Z,75.6
2018-11-27T01:52:26.037Z,75.32
2018-11-27T01:53:26.306Z,75.7
2018-11-27T01:54:26.073Z,75.42
2018-11-27T01:55:26.087Z,75.51
2018-11-27T01:56:26.102Z,75.42
2018-11-27T01:57:26.117Z,75.7
2018-11-27T01:58:26.169Z,75.42
2018-11-27T01:59:26.153Z,75.51
2018-11-27T02:00:26.436Z,75.32
2018-11-27T02:01:26.190Z,75.6
2018-11-27T02:02:26.206Z,75.6
2018-11-27T02:03:26.227Z,75.51
2018-11-27T02:04:26.270Z,75.51
2018-11-27T02:05:26.520Z,75.51
2018-11-27T02:06:26.548Z,75.6
2018-11-27T02:07:26.556Z,75.6
2018-11-27T02:08:26.571Z,75.7
2018-11-27T02:09:26.594Z,75.6
2018-11-27T02:10:26.608Z,75.51
2018-11-27T02:11:26.640Z,75.6
2018-11-27T02:12:26.649Z,75.42
2018-11-27T02:13:26.403Z,75.6
2018-11-27T02:14:26.418Z,75.6
2018-11-27T02:15:26.696Z,75.42
2018-11-27T02:16:26.453Z,75.6
2018-11-27T02:17:26.732Z,75.42
2018-11-27T02:18:26.491Z,75.42
2018-11-27T02:19:26.767Z,75.6
2018-11-27T02:20:26.794Z,75.6
2018-11-27T02:21:26.800Z,75.6
2018-11-27T02:22:26.564Z,75.51
2018-11-27T02:23:26.579Z,75.7
2018-11-27T02:24:26.856Z,75.51
2018-11-27T02:25:26.613Z,75.13
2018-11-27T02:26:26.888Z,75.23
2018-11-27T02:27:26.650Z,75.51
2018-11-27T02:28:26.975Z,75.7
2018-11-27T02:29:26.689Z,75.04
2018-11-27T02:30:26.705Z,75.32
2018-11-27T02:31:26.981Z,75.7
2018-11-27T02:32:26.742Z,75.32
2018-11-27T02:33:27.016Z,75.23
2018-11-27T02:34:26.773Z,75.32
2018-11-27T02:35:27.049Z,75.04
2018-11-27T02:36:27.069Z,75.04
2018-11-27T02:37:26.829Z,75.04
2018-11-27T02:38:27.103Z,75.23
2018-11-27T02:39:26.866Z,75.04
2018-11-27T02:40:26.938Z,75.23
2018-11-27T02:41:26.902Z,75.23
2018-11-27T02:42:27.177Z,75.04
2018-11-27T02:43:27.196Z,75.23
2018-11-27T02:44:26.955Z,75.23
2018-11-27T02:45:26.968Z,74.94
2018-11-27T02:46:26.995Z,74.94
2018-11-27T02:47:27.004Z,75.23
2018-11-27T02:48:27.284Z,74.94
2018-11-27T02:49:27.039Z,75.04
2018-11-27T02:50:27.321Z,74.94
2018-11-27T02:51:27.080Z,75.04
2018-11-27T02:52:27.093Z,75.04
2018-11-27T02:53:27.372Z,75.13
2018-11-27T02:54:27.140Z,75.32
2018-11-27T02:55:27.414Z,75.13
2018-11-27T02:56:27.165Z,75.32
2018-11-27T02:57:27.182Z,75.04
2018-11-27T02:58:27.201Z,75.23
2018-11-27T02:59:27.216Z,75.13
2018-11-27T03:00:27.515Z,75.04
2018-11-27T03:01:27.510Z,75.04
2018-11-27T03:02:27.530Z,75.23
2018-11-27T03:03:27.545Z,75.23
2018-11-27T03:04:27.315Z,75.7
2018-11-27T03:05:27.585Z,75.04
2018-11-27T03:06:27.341Z,75.6
2018-11-27T03:07:27.358Z,75.7
2018-11-27T03:08:27.632Z,75.7
2018-11-27T03:09:27.395Z,75.51
2018-11-27T03:10:27.680Z,75.51
2018-11-27T03:11:27.688Z,75.6
2018-11-27T03:12:27.447Z,75.32
2018-11-27T03:13:27.723Z,75.51
2018-11-27T03:14:27.483Z,75.42
2018-11-27T03:15:27.504Z,75.23
2018-11-27T03:16:27.777Z,75.23
2018-11-27T03:17:27.533Z,75.23
2018-11-27T03:18:27.811Z,75.6
2018-11-27T03:19:27.570Z,75.23
2018-11-27T03:20:27.588Z,75.51
2018-11-27T03:21:27.860Z,75.23
2018-11-27T03:22:27.621Z,75.51
2018-11-27T03:23:27.902Z,75.6
2018-11-27T03:24:27.917Z,75.51
2018-11-27T03:25:27.679Z,75.6
2018-11-27T03:26:27.953Z,75.6
2018-11-27T03:27:27.780Z,75.7
2018-11-27T03:28:27.991Z,75.6
2018-11-27T03:29:28.003Z,75.6
2018-11-27T03:30:27.833Z,75.6
2018-11-27T03:31:28.047Z,75.6
2018-11-27T03:32:28.064Z,75.6
2018-11-27T03:33:27.824Z,75.6
2018-11-27T03:34:28.096Z,75.51
2018-11-27T03:35:27.854Z,75.51
2018-11-27T03:36:27.871Z,75.04
2018-11-27T03:37:28.146Z,75.42
2018-11-27T03:38:27.905Z,75.23
2018-11-27T03:39:28.187Z,75.32
2018-11-27T03:40:28.212Z,75.7
2018-11-27T03:41:27.960Z,75.6
2018-11-27T03:42:28.244Z,75.7
2018-11-27T03:43:28.265Z,75.04
2018-11-27T03:44:28.274Z,75.04
2018-11-27T03:45:28.299Z,75.04
2018-11-27T03:46:28.317Z,75.04
2018-11-27T03:47:28.063Z,75.13
2018-11-27T03:48:28.085Z,75.23
2018-11-27T03:49:28.108Z,75.13
2018-11-27T03:50:28.116Z,75.13
2018-11-27T03:51:28.409Z,75.13
2018-11-27T03:52:28.176Z,75.23
2018-11-27T03:53:28.448Z,75.13
2018-11-27T03:54:28.445Z,75.23
2018-11-27T03:55:28.461Z,75.23
2018-11-27T03:56:28.224Z,75.23
2018-11-27T03:57:28.518Z,75.04
2018-11-27T03:58:28.518Z,75.51
2018-11-27T03:59:28.287Z,75.6
2018-11-27T04:00:28.331Z,75.13
2018-11-27T04:01:28.567Z,75.13
2018-11-27T04:02:28.330Z,75.42
2018-11-27T04:03:28.356Z,75.23
2018-11-27T04:04:28.633Z,75.42
2018-11-27T04:05:28.640Z,75.42
2018-11-27T04:06:28.403Z,75.23
2018-11-27T04:07:28.420Z,75.23
2018-11-27T04:08:28.698Z,75.42
2018-11-27T04:09:28.713Z,75.23
2018-11-27T04:10:28.473Z,75.23
2018-11-27T04:11:28.503Z,75.79
2018-11-27T04:12:28.507Z,75.42
2018-11-27T04:13:28.807Z,75.23
2018-11-27T04:14:28.798Z,75.32
2018-11-27T04:15:28.833Z,75.6
2018-11-27T04:16:28.579Z,75.32
2018-11-27T04:17:28.865Z,75.13
2018-11-27T04:18:28.868Z,75.32
2018-11-27T04:19:28.639Z,75.79
2018-11-27T04:20:28.659Z,75.42
2018-11-27T04:21:28.675Z,75.6
2018-11-27T04:22:28.939Z,75.32
2018-11-27T04:23:28.958Z,75.23
2018-11-27T04:24:28.714Z,75.79
2018-11-27T04:25:28.739Z,75.79
2018-11-27T04:26:29.022Z,75.32
2018-11-27T04:27:29.035Z,75.7
2018-11-27T04:28:29.045Z,75.32
2018-11-27T04:29:28.809Z,75.32
2018-11-27T04:30:28.827Z,75.6
2018-11-27T04:31:29.097Z,75.51
2018-11-27T04:32:29.113Z,75.42
2018-11-27T04:33:29.140Z,75.42
2018-11-27T04:34:28.894Z,75.6
2018-11-27T04:35:28.909Z,75.79
2018-11-27T04:36:29.204Z,75.6
2018-11-27T04:37:29.217Z,75.51
2018-11-27T04:38:28.960Z,75.42
2018-11-27T04:39:29.237Z,75.51
2018-11-27T04:40:28.996Z,75.51
2018-11-27T04:41:29.018Z,75.42
2018-11-27T04:42:29.031Z,75.6
2018-11-27T04:43:29.048Z,75.42
2018-11-27T04:44:29.323Z,75.42
2018-11-27T04:45:29.349Z,74.94
2018-11-27T04:46:29.111Z,75.51
2018-11-27T04:47:29.139Z,75.42
2018-11-27T04:48:29.157Z,75.6
2018-11-27T04:49:29.156Z,74.94
2018-11-27T04:50:29.432Z,74.94
2018-11-27T04:51:29.194Z,74.94
2018-11-27T04:52:29.222Z,74.94
2018-11-27T04:53:29.228Z,75.32
2018-11-27T04:54:29.240Z,74.85
2018-11-27T04:55:29.262Z,75.42
2018-11-27T04:56:29.539Z,74.94
2018-11-27T04:57:29.554Z,74.66
2018-11-27T04:58:29.316Z,74.85
2018-11-27T04:59:29.337Z,75.04
2018-11-27T05:00:29.355Z,74.85
2018-11-27T05:01:29.364Z,74.85
2018-11-27T05:02:30.353Z,74.94
2018-11-27T05:03:29.652Z,74.66
2018-11-27T05:04:29.418Z,74.94
2018-11-27T05:05:29.430Z,75.04
2018-11-27T05:06:29.722Z,74.94
2018-11-27T05:07:29.725Z,74.94
2018-11-27T05:08:29.744Z,74.66
2018-11-27T05:09:29.501Z,74.94
2018-11-27T05:10:29.517Z,74.94
2018-11-27T05:11:29.804Z,74.85
2018-11-27T05:12:29.820Z,74.85
2018-11-27T05:13:29.584Z,75.04
2018-11-27T05:14:29.591Z,74.94
2018-11-27T05:15:29.876Z,74.94
2018-11-27T05:16:29.881Z,74.85
2018-11-27T05:17:29.900Z,74.85
2018-11-27T05:18:29.925Z,75.13
2018-11-27T05:19:29.673Z,74.66
2018-11-27T05:20:29.693Z,75.04
2018-11-27T05:21:29.709Z,75.04
2018-11-27T05:22:29.986Z,74.66
2018-11-27T05:23:29.757Z,75.13
2018-11-27T05:24:29.766Z,74.56
2018-11-27T05:25:30.051Z,74.94
2018-11-27T05:26:30.061Z,74.85
2018-11-27T05:27:29.818Z,74.66
2018-11-27T05:28:29.843Z,74.94
2018-11-27T05:29:29.853Z,74.94
2018-11-27T05:30:30.937Z,75.13
2018-11-27T05:31:29.886Z,74.94
2018-11-27T05:32:30.162Z,75.13
2018-11-27T05:33:30.181Z,74.94
2018-11-27T05:34:29.946Z,74.94
2018-11-27T05:35:29.972Z,74.85
2018-11-27T05:36:29.976Z,74.85
2018-11-27T05:37:30.250Z,74.94
2018-11-27T05:38:30.268Z,75.13
2018-11-27T05:39:30.287Z,74.66
2018-11-27T05:40:30.053Z,74.85
2018-11-27T05:41:30.061Z,74.85
2018-11-27T05:42:30.079Z,74.85
2018-11-27T05:43:30.357Z,75.23
2018-11-27T05:44:30.376Z,74.56
2018-11-27T05:45:30.146Z,75.13
2018-11-27T05:46:30.151Z,74.56
2018-11-27T05:47:30.165Z,74.94
2018-11-27T05:48:30.452Z,74.85
2018-11-27T05:49:30.202Z,74.85
2018-11-27T05:50:30.223Z,74.75
2018-11-27T05:51:30.501Z,74.75
2018-11-27T05:52:30.270Z,74.66
2018-11-27T05:53:30.271Z,74.85
2018-11-27T05:54:30.557Z,74.85
2018-11-27T05:55:30.305Z,74.85
2018-11-27T05:56:30.323Z,74.66
2018-11-27T05:57:30.339Z,74.85
2018-11-27T05:58:30.361Z,74.85
2018-11-27T05:59:30.377Z,74.85
2018-11-27T06:00:30.648Z,74.85
2018-11-27T06:01:30.418Z,74.85
2018-11-27T06:02:30.689Z,74.85
2018-11-27T06:03:30.450Z,74.75
2018-11-27T06:04:30.458Z,74.85
2018-11-27T06:05:30.483Z,74.75
2018-11-27T06:06:30.506Z,74.66
2018-11-27T06:07:30.518Z,74.94
2018-11-27T06:08:30.802Z,75.13
2018-11-27T06:09:30.549Z,74.94
2018-11-27T06:10:30.835Z,74.94
2018-11-27T06:11:30.841Z,74.85
2018-11-27T06:12:30.608Z,74.94
2018-11-27T06:13:30.615Z,74.75
2018-11-27T06:14:30.890Z,74.94
2018-11-27T06:15:30.671Z,74.66
2018-11-27T06:16:30.928Z,74.85
2018-11-27T06:17:30.951Z,74.75
2018-11-27T06:18:30.712Z,74.85
2018-11-27T06:19:30.727Z,74.85
2018-11-27T06:20:30.749Z,75.32
2018-11-27T06:21:31.015Z,74.66
2018-11-27T06:22:30.783Z,75.23
2018-11-27T06:23:31.050Z,74.94
2018-11-27T06:24:30.818Z,74.94
2018-11-27T06:25:30.874Z,74.85
2018-11-27T06:26:31.099Z,74.94
2018-11-27T06:27:30.859Z,74.94
2018-11-27T06:28:31.137Z,74.66
2018-11-27T06:29:30.896Z,75.13
2018-11-27T06:30:30.911Z,74.85
2018-11-27T06:31:30.930Z,74.85
2018-11-27T06:32:30.950Z,74.94
2018-11-27T06:33:30.975Z,74.85
2018-11-27T06:34:30.982Z,74.66
2018-11-27T06:35:31.255Z,75.13
2018-11-27T06:36:31.015Z,74.66
2018-11-27T06:37:31.298Z,74.94
2018-11-27T06:38:31.310Z,74.66
2018-11-27T06:39:31.077Z,74.94
2018-11-27T06:40:31.095Z,74.56
2018-11-27T06:41:31.116Z,74.94
2018-11-27T06:42:31.383Z,75.13
2018-11-27T06:43:31.136Z,74.66
2018-11-27T06:44:31.424Z,74.56
2018-11-27T06:45:31.437Z,74.85
2018-11-27T06:46:31.458Z,74.85
2018-11-27T06:47:31.479Z,74.85
2018-11-27T06:48:31.495Z,74.94
2018-11-27T06:49:31.500Z,74.75
2018-11-27T06:50:31.274Z,74.75
2018-11-27T06:51:31.277Z,74.85
2018-11-27T06:52:31.299Z,74.85
2018-11-27T06:53:31.310Z,74.37
2018-11-27T06:54:31.598Z,74.94
2018-11-27T06:55:31.604Z,74.85
2018-11-27T06:56:31.626Z,74.85
2018-11-27T06:57:31.379Z,74.85
2018-11-27T06:58:31.670Z,74.94
2018-11-27T06:59:31.679Z,75.13
2018-11-27T07:00:31.694Z,74.37
2018-11-27T07:01:31.455Z,74.56
2018-11-27T07:02:31.475Z,74.66
2018-11-27T07:03:31.492Z,74.37
2018-11-27T07:04:31.513Z,74.37
2018-11-27T07:05:31.791Z,74.85
2018-11-27T07:06:31.793Z,74.47
2018-11-27T07:07:31.564Z,74.85
2018-11-27T07:08:31.579Z,74.94
2018-11-27T07:09:31.890Z,74.85
2018-11-27T07:10:31.869Z,74.75
2018-11-27T07:11:31.626Z,74.94
2018-11-27T07:12:31.688Z,75.04
2018-11-27T07:13:31.659Z,74.85
2018-11-27T07:14:31.950Z,74.75
2018-11-27T07:15:31.693Z,74.66
2018-11-27T07:16:31.711Z,74.94
2018-11-27T07:17:31.730Z,74.47
2018-11-27T07:18:31.753Z,74.56
2018-11-27T07:19:31.761Z,74.56
2018-11-27T07:20:31.779Z,74.56
2018-11-27T07:21:31.801Z,74.66
2018-11-27T07:22:31.814Z,74.47
2018-11-27T07:23:32.101Z,74.66
2018-11-27T07:24:31.860Z,74.56
2018-11-27T07:25:31.867Z,74.66
2018-11-27T07:26:32.153Z,74.56
2018-11-27T07:27:32.169Z,74.47
2018-11-27T07:28:31.972Z,74.85
2018-11-27T07:29:32.209Z,74.47
2018-11-27T07:30:32.233Z,74.56
2018-11-27T07:31:31.970Z,74.56
2018-11-27T07:32:32.258Z,74.56
2018-11-27T07:33:32.016Z,74.75
2018-11-27T07:34:32.296Z,74.75
2018-11-27T07:35:32.353Z,74.85
2018-11-27T07:36:32.060Z,74.37
2018-11-27T07:37:32.351Z,74.37
2018-11-27T07:38:32.361Z,74.37
2018-11-27T07:39:32.121Z,74.56
2018-11-27T07:40:32.126Z,74.56
2018-11-27T07:41:32.140Z,74.66
2018-11-27T07:42:32.430Z,74.75
2018-11-27T07:43:32.447Z,74.37
2018-11-27T07:44:32.471Z,74.56
2018-11-27T07:45:32.483Z,74.66
2018-11-27T07:46:32.245Z,74.66
2018-11-27T07:47:32.510Z,74.18
2018-11-27T07:48:32.540Z,74.85
2018-11-27T07:49:32.546Z,73.99
2018-11-27T07:50:32.307Z,74.18
2018-11-27T07:51:32.572Z,73.99
2018-11-27T07:52:32.593Z,74.08
2018-11-27T07:53:32.351Z,74.18
2018-11-27T07:54:32.628Z,73.9
2018-11-27T07:55:32.651Z,73.99
2018-11-27T07:56:32.662Z,73.9
2018-11-27T07:57:32.690Z,73.9
2018-11-27T07:58:32.701Z,73.99
2018-11-27T07:59:32.718Z,74.37
2018-11-27T08:00:32.473Z,73.8
2018-11-27T08:01:32.493Z,74.18
2018-11-27T08:02:32.766Z,74.18
2018-11-27T08:03:32.782Z,74.18
2018-11-27T08:04:32.540Z,74.18
2018-11-27T08:05:32.814Z,74.27
2018-11-27T08:06:32.578Z,74.18
2018-11-27T08:07:32.602Z,73.99
2018-11-27T08:08:32.875Z,74.08
2018-11-27T08:09:32.641Z,74.08
2018-11-27T08:10:32.646Z,74.08
2018-11-27T08:11:32.670Z,74.08
2018-11-27T08:12:32.686Z,74.18
2018-11-27T08:13:32.703Z,74.27
2018-11-27T08:14:32.718Z,74.27
2018-11-27T08:15:32.739Z,74.37
2018-11-27T08:16:33.013Z,74.27
2018-11-27T08:17:33.037Z,74.08
2018-11-27T08:18:32.783Z,74.27
2018-11-27T08:19:33.062Z,74.08
2018-11-27T08:20:33.082Z,73.99
2018-11-27T08:21:33.105Z,74.18
2018-11-27T08:22:32.852Z,73.52
2018-11-27T08:23:33.130Z,74.37
2018-11-27T08:24:33.157Z,74.08
2018-11-27T08:25:33.163Z,73.8
2018-11-27T08:26:33.179Z,73.8
2018-11-27T08:27:33.200Z,73.99
2018-11-27T08:28:32.964Z,73.99
2018-11-27T08:29:32.984Z,73.99
2018-11-27T08:30:32.996Z,73.99
2018-11-27T08:31:33.018Z,73.8
2018-11-27T08:32:33.037Z,73.99
2018-11-27T08:33:33.041Z,73.99
2018-11-27T08:34:33.072Z,74.18
2018-11-27T08:35:33.087Z,73.99
2018-11-27T08:36:33.359Z,73.9
2018-11-27T08:37:33.117Z,74.08
2018-11-27T08:38:33.142Z,73.9
2018-11-27T08:39:33.151Z,73.99
2018-11-27T08:40:33.171Z,73.61
2018-11-27T08:41:42.514Z,73.61
2018-11-27T08:42:33.201Z,73.61
2018-11-27T08:43:33.484Z,73.42
2018-11-27T08:44:33.237Z,73.52
2018-11-27T08:45:33.257Z,73.52
2018-11-27T08:46:33.269Z,73.42
2018-11-27T08:47:33.287Z,73.71
2018-11-27T08:48:33.565Z,73.71
2018-11-27T08:49:33.591Z,73.71
2018-11-27T08:50:33.603Z,73.71
2018-11-27T08:51:33.612Z,73.61
2018-11-27T08:52:33.631Z,73.99
2018-11-27T08:53:33.401Z,73.71
2018-11-27T08:54:33.422Z,73.99
2018-11-27T08:55:33.691Z,73.42
2018-11-27T08:56:33.703Z,73.9
2018-11-27T08:57:33.461Z,73.52
2018-11-27T08:58:33.743Z,73.42
2018-11-27T08:59:33.506Z,73.8
2018-11-27T09:00:33.773Z,73.8
2018-11-27T09:01:33.786Z,73.8
2018-11-27T09:02:33.548Z,73.8
2018-11-27T09:03:33.576Z,73.71
2018-11-27T09:04:33.841Z,73.71
2018-11-27T09:05:33.856Z,73.33
2018-11-27T09:06:33.898Z,73.23
2018-11-27T09:07:33.912Z,73.52
2018-11-27T09:08:33.908Z,73.23
2018-11-27T09:09:33.680Z,73.04
2018-11-27T09:10:33.699Z,73.14
2018-11-27T09:11:33.708Z,73.14
2018-11-27T09:12:33.724Z,73.04
2018-11-27T09:13:33.749Z,73.04
2018-11-27T09:14:33.755Z,72.95
2018-11-27T09:15:33.821Z,72.85
2018-11-27T09:16:33.791Z,73.14
2018-11-27T09:17:34.084Z,73.23
2018-11-27T09:18:34.084Z,73.23
2018-11-27T09:19:34.105Z,73.23
2018-11-27T09:20:34.124Z,73.23
2018-11-27T09:21:33.878Z,73.04
2018-11-27T09:22:33.903Z,73.23
2018-11-27T09:23:34.175Z,73.33
2018-11-27T09:24:33.938Z,73.23
2018-11-27T09:25:33.959Z,72.95
2018-11-27T09:26:34.225Z,73.04
2018-11-27T09:27:34.239Z,73.33
2018-11-27T09:28:33.999Z,73.23
2018-11-27T09:29:34.024Z,73.04
2018-11-27T09:30:34.309Z,72.85
2018-11-27T09:31:34.322Z,72.85
2018-11-27T09:32:34.327Z,72.75
2018-11-27T09:33:34.345Z,72.85
2018-11-27T09:34:34.363Z,72.85
2018-11-27T09:35:34.389Z,72.66
2018-11-27T09:36:34.412Z,72.66
2018-11-27T09:37:34.425Z,72.66
2018-11-27T09:38:34.434Z,72.95
2018-11-27T09:39:34.202Z,72.75
2018-11-27T09:40:34.212Z,72.47
2018-11-27T09:41:34.495Z,72.47
2018-11-27T09:42:34.500Z,72.66
2018-11-27T09:43:34.523Z,72.47
2018-11-27T09:44:34.537Z,72.28
2018-11-27T09:45:34.299Z,72.47
2018-11-27T09:46:34.318Z,72.51
2018-11-27T09:47:34.593Z,72.79
2018-11-27T09:48:34.619Z,72.09
2018-11-27T09:49:34.374Z,71.9
2018-11-27T09:50:34.386Z,72.13
2018-11-27T09:51:34.661Z,72.03
2018-11-27T09:52:34.678Z,72.22
2018-11-27T09:53:34.696Z,72.41
2018-11-27T09:54:34.458Z,72.03
2018-11-27T09:55:34.475Z,71.66
2018-11-27T09:56:34.497Z,71.75
2018-11-27T09:57:34.512Z,71.84
2018-11-27T09:58:34.534Z,71.66
2018-11-27T09:59:34.810Z,71.37
2018-11-27T10:00:34.571Z,71.66
2018-11-27T10:01:34.833Z,71.66
2018-11-27T10:02:34.599Z,71.66
2018-11-27T10:03:34.875Z,71.56
2018-11-27T10:04:34.888Z,71.18
2018-11-27T10:05:34.645Z,71.46
2018-11-27T10:06:34.925Z,71.27
2018-11-27T10:07:34.684Z,70.51
2018-11-27T10:08:34.700Z,70.99
2018-11-27T10:09:34.725Z,71.18
2018-11-27T10:10:35.004Z,71.18
2018-11-27T10:11:34.758Z,70.99
2018-11-27T10:12:35.029Z,70.7
2018-11-27T10:13:35.049Z,70.42
2018-11-27T10:14:35.067Z,70.23
2018-11-27T10:15:34.834Z,70.32
2018-11-27T10:16:35.101Z,70.51
2018-11-27T10:17:35.379Z,70.51
2018-11-27T10:18:34.881Z,70.79
2018-11-27T10:19:34.912Z,70.42
2018-11-27T10:20:34.920Z,70.42
2018-11-27T10:21:34.932Z,70.51
2018-11-27T10:22:34.959Z,70.61
2018-11-27T10:23:34.966Z,70.7
2018-11-27T10:24:35.239Z,70.23
2018-11-27T10:25:35.012Z,70.23
2018-11-27T10:26:35.023Z,70.42
2018-11-27T10:27:35.290Z,70.42
2018-11-27T10:28:35.061Z,70.13
2018-11-27T10:29:35.334Z,70.64
2018-11-27T10:30:35.097Z,70.07
2018-11-27T10:31:35.105Z,70.23
2018-11-27T10:32:35.396Z,70.26
2018-11-27T10:33:35.409Z,70.07
2018-11-27T10:34:35.435Z,70.04
2018-11-27T10:35:35.436Z,70.45
2018-11-27T10:36:35.200Z,70.07
2018-11-27T10:37:35.222Z,70.32
2018-11-27T10:38:35.231Z,70.45
2018-11-27T10:39:35.248Z,70.32
2018-11-27T10:40:35.264Z,69.85
2018-11-27T10:41:35.281Z,70.54
2018-11-27T10:42:35.304Z,70.32
2018-11-27T10:43:35.579Z,70.23
2018-11-27T10:44:35.599Z,70.42
2018-11-27T10:45:35.363Z,70.32
2018-11-27T10:46:35.632Z,70.36
2018-11-27T10:47:35.403Z,70.26
2018-11-27T10:48:35.412Z,70.17
2018-11-27T10:49:35.686Z,70.17
2018-11-27T10:50:35.441Z,70.07
2018-11-27T10:51:35.472Z,70.17
2018-11-27T10:52:35.736Z,69.98
2018-11-27T10:53:35.495Z,69.88
2018-11-27T10:54:35.774Z,69.88
2018-11-27T10:55:35.787Z,70.36
2018-11-27T10:56:35.547Z,70.17
2018-11-27T10:57:35.567Z,70.17
2018-11-27T10:58:35.605Z,70.17
2018-11-27T10:59:35.607Z,70.07
2018-11-27T11:00:35.627Z,70.17
2018-11-27T11:01:35.642Z,70.17
2018-11-27T11:02:35.930Z,70.17
2018-11-27T11:03:35.681Z,70.07
2018-11-27T11:04:35.952Z,70.17
2018-11-27T11:05:35.714Z,70.07
2018-11-27T11:06:35.988Z,70.17
2018-11-27T11:07:35.749Z,70.04
2018-11-27T11:08:36.018Z,70.17
2018-11-27T11:09:35.804Z,70.26
2018-11-27T11:10:35.801Z,70.32
2018-11-27T11:11:36.074Z,70.17
2018-11-27T11:12:35.832Z,70.13
2018-11-27T11:13:36.105Z,70.07
2018-11-27T11:14:35.876Z,70.07
2018-11-27T11:15:36.146Z,70.13
2018-11-27T11:16:36.162Z,70.17
2018-11-27T11:17:36.189Z,70.17
2018-11-27T11:18:36.199Z,70.36
2018-11-27T11:19:35.957Z,70.07
2018-11-27T11:20:36.232Z,69.98
2018-11-27T11:21:36.004Z,70.26
2018-11-27T11:22:36.267Z,70.26
2018-11-27T11:23:36.028Z,70.26
2018-11-27T11:24:36.303Z,70.17
2018-11-27T11:25:36.111Z,69.37
2018-11-27T11:26:36.086Z,70.26
2018-11-27T11:27:36.101Z,69.94
2018-11-27T11:28:36.115Z,70.23
2018-11-27T11:29:36.132Z,70.23
2018-11-27T11:30:36.162Z,69.88
2018-11-27T11:31:36.429Z,69.88
2018-11-27T11:32:36.194Z,69.79
2018-11-27T11:33:36.464Z,69.85
2018-11-27T11:34:36.224Z,69.46
2018-11-27T11:35:36.497Z,69.56
2018-11-27T11:36:36.257Z,69.46
2018-11-27T11:37:36.276Z,69.85
2018-11-27T11:38:36.557Z,69.94
2018-11-27T11:39:36.580Z,69.85
2018-11-27T11:40:36.330Z,69.75
2018-11-27T11:41:36.345Z,69.37
2018-11-27T11:42:36.403Z,69.85
2018-11-27T11:43:36.643Z,69.18
2018-11-27T11:44:36.658Z,69.5
2018-11-27T11:45:36.415Z,69.27
2018-11-27T11:46:36.692Z,69.66
2018-11-27T11:47:36.451Z,69.5
2018-11-27T11:48:36.744Z,69.37
2018-11-27T11:49:36.487Z,69.69
2018-11-27T11:50:36.766Z,69.66
2018-11-27T11:51:36.527Z,69.85
2018-11-27T11:52:37.598Z,69.75
2018-11-27T11:53:36.558Z,69.56
2018-11-27T11:54:36.833Z,69.56
2018-11-27T11:55:36.599Z,69.79
2018-11-27T11:56:36.610Z,69.69
2018-11-27T11:57:36.631Z,69.41
2018-11-27T11:58:36.650Z,69.46
2018-11-27T11:59:36.930Z,69.41
2018-11-27T12:00:36.693Z,69.21
2018-11-27T12:01:36.710Z,69.31
2018-11-27T12:02:36.720Z,69.21
2018-11-27T12:03:36.737Z,69.02
2018-11-27T12:04:37.030Z,68.93
2018-11-27T12:05:36.778Z,69.02
2018-11-27T12:06:37.051Z,68.93
2018-11-27T12:07:36.896Z,69.02
2018-11-27T12:08:37.086Z,68.46
2018-11-27T12:09:36.844Z,69.02
2018-11-27T12:10:36.900Z,68.74
2018-11-27T12:11:36.879Z,68.46
2018-11-27T12:12:36.907Z,68.84
2018-11-27T12:13:37.185Z,68.55
2018-11-27T12:14:36.945Z,68.93
2018-11-27T12:15:36.959Z,68.46
2018-11-27T12:16:37.239Z,68.65
2018-11-27T12:17:37.253Z,68.17
2018-11-27T12:18:37.266Z,68.65
2018-11-27T12:19:37.023Z,68.17
2018-11-27T12:20:37.040Z,68.27
2018-11-27T12:21:37.103Z,68.36
2018-11-27T12:22:37.335Z,68.27
2018-11-27T12:23:37.355Z,68.17
2018-11-27T12:24:37.126Z,68.36
2018-11-27T12:25:37.136Z,68.17
2018-11-27T12:26:37.413Z,68.17
2018-11-27T12:27:37.425Z,68.27
2018-11-27T12:28:37.183Z,68.36
2018-11-27T12:29:37.465Z,68.74
2018-11-27T12:30:37.243Z,68.46
2018-11-27T12:31:37.497Z,68.84
2018-11-27T12:32:37.267Z,68.74
2018-11-27T12:33:37.283Z,68.65
2018-11-27T12:34:37.547Z,68.74
2018-11-27T12:35:37.310Z,68.17
2018-11-27T12:36:37.585Z,68.93
2018-11-27T12:37:37.612Z,68.36
2018-11-27T12:38:37.367Z,68.84
2018-11-27T12:39:37.388Z,68.27
2018-11-27T12:40:37.405Z,68.36
2018-11-27T12:41:37.426Z,68.55
2018-11-27T12:42:37.696Z,68.55
2018-11-27T12:43:37.455Z,69.21
2018-11-27T12:44:37.477Z,68.93
2018-11-27T12:45:37.758Z,69.02
2018-11-27T12:46:37.513Z,68.93
2018-11-27T12:47:37.782Z,68.84
2018-11-27T12:48:37.542Z,69.02
2018-11-27T12:49:37.817Z,68.84
2018-11-27T12:50:37.845Z,68.93
2018-11-27T12:51:37.605Z,69.02
2018-11-27T12:52:37.869Z,69.12
2018-11-27T12:53:37.641Z,68.99
2018-11-27T12:54:37.685Z,69.09
2018-11-27T12:55:37.667Z,69.31